createdAt,value
2023-03-13T00:01:40.786Z,100835.51
2023-03-13T00:04:09.255Z,100832.41
2023-03-13T00:06:39.162Z,100823.57
2023-03-13T00:09:09.940Z,100816.38
2023-03-13T00:11:38.434Z,100815.24
2023-03-13T00:14:07.781Z,100811.64
2023-03-13T00:16:37.780Z,100788.90
2023-03-13T00:19:08.088Z,100784.59
2023-03-13T00:21:41.346Z,100792.35
2023-03-13T00:24:12.108Z,100785.55
2023-03-13T00:26:40.267Z,100773.90
2023-03-13T00:29:08.699Z,100767.42
2023-03-13T00:31:37.560Z,100766.35
2023-03-13T00:34:05.875Z,100761.63
2023-03-13T00:36:36.393Z,100758.00
2023-03-13T00:39:06.465Z,100752.14
2023-03-13T00:41:37.172Z,100741.48
2023-03-13T00:44:06.875Z,100731.47
2023-03-13T00:46:36.165Z,100723.06
2023-03-13T00:49:04.848Z,100725.19
2023-03-13T00:51:35.707Z,100730.05
2023-03-13T00:54:05.040Z,100736.89
2023-03-13T00:56:34.528Z,100735.73
2023-03-13T00:59:03.294Z,100729.06
2023-03-13T01:01:36.193Z,100729.70
2023-03-13T01:04:07.731Z,100726.90
2023-03-13T01:06:38.898Z,100731.61
2023-03-13T01:09:08.163Z,100729.28
2023-03-13T01:11:38.487Z,100730.34
2023-03-13T01:14:11.058Z,100729.38
2023-03-13T01:16:39.471Z,100730.95
2023-03-13T01:19:14.705Z,100726.67
2023-03-13T01:21:44.592Z,100718.55
2023-03-13T01:24:13.228Z,100708.65
2023-03-13T01:26:41.545Z,100704.73
2023-03-13T01:29:09.710Z,100709.20
2023-03-13T01:31:38.072Z,100707.98
2023-03-13T01:34:10.465Z,100704.27
2023-03-13T01:36:38.983Z,100687.98
2023-03-13T01:39:07.478Z,100686.38
2023-03-13T01:41:35.737Z,100683.19
2023-03-13T01:44:04.368Z,100673.66
2023-03-13T01:46:35.968Z,100667.20
2023-03-13T01:49:35.271Z,100657.63
2023-03-13T01:52:33.312Z,100652.39
2023-03-13T01:55:14.746Z,100649.92
2023-03-13T01:57:50.902Z,100646.44
2023-03-13T02:00:25.200Z,100640.54
2023-03-13T02:02:58.065Z,100636.73
2023-03-13T02:05:29.091Z,100606.98
2023-03-13T02:08:04.986Z,100635.86
2023-03-13T02:10:36.874Z,100626.12
2023-03-13T02:13:05.134Z,100617.02
2023-03-13T02:15:34.746Z,100604.20
2023-03-13T02:18:03.031Z,100598.35
2023-03-13T02:20:31.318Z,100600.66
2023-03-13T02:23:12.670Z,100590.05
2023-03-13T02:25:43.234Z,100575.27
2023-03-13T02:28:13.641Z,100594.31
2023-03-13T02:30:44.446Z,100604.01
2023-03-13T02:33:14.503Z,100610.19
2023-03-13T02:35:45.392Z,100611.29
2023-03-13T02:38:24.141Z,100607.21
2023-03-13T02:40:53.872Z,100633.09
2023-03-13T02:43:31.058Z,100633.92
2023-03-13T02:46:08.033Z,100635.37
2023-03-13T02:48:41.529Z,100637.33
2023-03-13T02:51:29.573Z,100636.08
2023-03-13T02:54:02.063Z,100632.15
2023-03-13T02:56:34.915Z,100627.41
2023-03-13T02:59:04.945Z,100628.83
2023-03-13T03:01:33.976Z,100625.95
2023-03-13T03:04:02.689Z,100627.55
2023-03-13T03:06:31.363Z,100627.59
2023-03-13T03:08:59.653Z,100625.66
2023-03-13T03:11:27.956Z,100622.72
2023-03-13T03:14:01.322Z,100620.05
2023-03-13T03:16:30.770Z,100624.15
2023-03-13T03:18:59.139Z,100621.83
2023-03-13T03:21:27.716Z,100618.61
2023-03-13T03:23:56.000Z,100619.06
2023-03-13T03:26:25.623Z,100617.54
2023-03-13T03:28:54.214Z,100606.88
2023-03-13T03:31:22.870Z,100607.09
2023-03-13T03:33:51.122Z,100606.45
2023-03-13T03:36:22.268Z,100603.80
2023-03-13T03:38:51.384Z,100592.52
2023-03-13T03:41:21.655Z,100603.53
2023-03-13T03:43:50.537Z,100599.44
2023-03-13T03:46:21.734Z,100590.88
2023-03-13T03:48:49.984Z,100585.95
2023-03-13T03:51:18.154Z,100574.02
2023-03-13T03:53:47.654Z,100566.63
2023-03-13T03:56:15.994Z,100563.17
2023-03-13T03:58:47.746Z,100561.92
2023-03-13T04:01:32.928Z,100565.54
2023-03-13T04:04:01.984Z,100568.40
2023-03-13T04:06:30.613Z,100567.38
2023-03-13T04:08:59.312Z,100558.63
2023-03-13T04:11:29.671Z,100545.77
2023-03-13T04:13:58.101Z,100537.28
2023-03-13T04:16:26.873Z,100538.70
2023-03-13T04:18:56.354Z,100527.54
2023-03-13T04:21:26.817Z,100532.45
2023-03-13T04:24:08.640Z,100526.08
2023-03-13T04:26:37.549Z,100520.33
2023-03-13T04:29:06.453Z,100525.30
2023-03-13T04:31:51.956Z,100529.32
2023-03-13T04:34:35.768Z,100532.62
2023-03-13T04:37:20.403Z,100529.70
2023-03-13T04:40:18.110Z,100515.73
2023-03-13T04:43:12.230Z,100513.80
2023-03-13T04:45:40.489Z,100504.69
2023-03-13T04:48:22.632Z,100496.48
2023-03-13T04:51:07.951Z,100487.70
2023-03-13T04:54:11.723Z,100482.55
2023-03-13T04:56:58.656Z,100475.55
2023-03-13T04:59:54.403Z,100472.62
2023-03-13T05:02:22.690Z,100470.16
2023-03-13T05:04:54.025Z,100465.58
2023-03-13T05:07:57.632Z,100465.55
2023-03-13T05:10:47.140Z,100458.56
2023-03-13T05:13:31.490Z,100457.33
2023-03-13T05:16:13.434Z,100458.09
2023-03-13T05:19:08.190Z,100454.72
2023-03-13T05:21:43.424Z,100450.95
2023-03-13T05:24:50.351Z,100438.42
2023-03-13T05:27:41.549Z,100428.95
2023-03-13T05:30:28.468Z,100415.95
2023-03-13T05:33:09.414Z,100412.46
2023-03-13T05:35:47.142Z,100411.16
2023-03-13T05:38:40.635Z,100413.70
2023-03-13T05:41:14.702Z,100420.85
2023-03-13T05:43:58.287Z,100424.76
2023-03-13T05:46:29.084Z,100423.81
2023-03-13T05:49:17.569Z,100419.23
2023-03-13T05:52:24.091Z,100421.89
2023-03-13T05:55:19.694Z,100397.33
2023-03-13T05:58:03.085Z,100401.09
2023-03-13T06:00:48.872Z,100404.66
2023-03-13T06:03:35.856Z,100400.52
2023-03-13T06:06:05.260Z,100399.70
2023-03-13T06:08:38.344Z,100392.95
2023-03-13T06:11:06.802Z,100382.86
2023-03-13T06:13:35.511Z,100386.70
2023-03-13T06:16:11.307Z,100390.27
2023-03-13T06:18:45.833Z,100395.87
2023-03-13T06:21:14.160Z,100394.70
2023-03-13T06:23:42.449Z,100393.92
2023-03-13T06:26:10.697Z,100390.51
2023-03-13T06:28:38.985Z,100389.65
2023-03-13T06:31:08.718Z,100385.66
2023-03-13T06:33:37.442Z,100387.20
2023-03-13T06:36:06.300Z,100380.20
2023-03-13T06:38:34.595Z,100375.81
2023-03-13T06:41:02.849Z,100371.49
2023-03-13T06:43:31.444Z,100366.33
2023-03-13T06:46:04.410Z,100360.64
2023-03-13T06:48:32.817Z,100355.75
2023-03-13T06:51:01.048Z,100334.42
2023-03-13T06:53:29.169Z,100347.08
2023-03-13T06:56:01.000Z,100341.45
2023-03-13T06:58:32.754Z,100341.25
2023-03-13T07:01:10.384Z,100340.42
2023-03-13T07:03:39.801Z,100343.60
2023-03-13T07:06:09.823Z,100343.79
2023-03-13T07:08:38.584Z,100344.15
2023-03-13T07:11:12.062Z,100347.59
2023-03-13T07:13:40.405Z,100346.08
2023-03-13T07:16:12.185Z,100335.56
2023-03-13T07:18:45.049Z,100331.97
2023-03-13T07:21:14.086Z,100328.13
2023-03-13T07:23:42.361Z,100324.48
2023-03-13T07:26:14.204Z,100319.09
2023-03-13T07:28:43.414Z,100316.60
2023-03-13T07:31:21.192Z,100312.46
2023-03-13T07:33:52.641Z,100303.45
2023-03-13T07:36:20.845Z,100299.64
2023-03-13T07:38:49.983Z,100300.52
2023-03-13T07:41:20.034Z,100295.66
2023-03-13T07:43:48.477Z,100293.80
2023-03-13T07:46:20.017Z,100291.14
2023-03-13T07:48:48.930Z,100285.16
2023-03-13T07:51:23.276Z,100282.23
2023-03-13T07:53:53.746Z,100254.77
2023-03-13T07:56:23.647Z,100274.79
2023-03-13T07:58:51.965Z,100271.77
2023-03-13T08:01:28.437Z,100263.05
2023-03-13T08:04:01.669Z,100251.34
2023-03-13T08:06:33.970Z,100249.92
2023-03-13T08:09:04.002Z,100247.61
2023-03-13T08:11:32.207Z,100236.14
2023-03-13T08:14:00.765Z,100231.65
2023-03-13T08:16:31.771Z,100235.48
2023-03-13T08:19:01.744Z,100232.48
2023-03-13T08:21:32.141Z,100236.87
2023-03-13T08:24:04.180Z,100232.77
2023-03-13T08:26:34.193Z,100232.50
2023-03-13T08:29:06.280Z,100233.23
2023-03-13T08:31:47.647Z,100230.23
2023-03-13T08:34:17.202Z,100227.61
2023-03-13T08:36:46.237Z,100221.98
2023-03-13T08:39:17.088Z,100218.14
2023-03-13T08:41:45.626Z,100200.30
2023-03-13T08:44:16.306Z,100215.92
2023-03-13T08:46:44.655Z,100218.23
2023-03-13T08:49:13.632Z,100219.08
2023-03-13T08:51:41.971Z,100216.85
2023-03-13T08:54:10.408Z,100208.02
2023-03-13T08:56:38.621Z,100201.30
2023-03-13T08:59:07.161Z,100197.91
2023-03-13T09:01:36.583Z,100200.71
2023-03-13T09:04:05.878Z,100194.70
2023-03-13T09:06:36.184Z,100193.71
2023-03-13T09:09:05.925Z,100187.66
2023-03-13T09:11:36.300Z,100170.96
2023-03-13T09:14:04.592Z,100179.73
2023-03-13T09:16:33.909Z,100167.30
2023-03-13T09:19:02.456Z,100168.34
2023-03-13T09:21:33.679Z,100158.09
2023-03-13T09:24:02.824Z,100158.27
2023-03-13T09:26:31.364Z,100151.48
2023-03-13T09:29:00.022Z,100146.87
2023-03-13T09:31:31.461Z,100138.69
2023-03-13T09:34:00.589Z,100137.10
2023-03-13T09:36:28.875Z,100135.52
2023-03-13T09:38:59.857Z,100125.87
2023-03-13T09:41:48.451Z,100114.21
2023-03-13T09:44:29.328Z,100109.08
2023-03-13T09:47:19.571Z,100101.52
2023-03-13T09:49:57.201Z,100104.58
2023-03-13T09:52:30.227Z,100104.23
2023-03-13T09:55:05.504Z,100100.34
2023-03-13T09:57:37.368Z,100099.52
2023-03-13T10:00:13.034Z,100093.80
2023-03-13T10:02:47.505Z,100084.40
2023-03-13T10:05:24.881Z,100080.27
2023-03-13T10:08:17.773Z,100078.67
2023-03-13T10:11:05.049Z,100074.23
2023-03-13T10:13:33.534Z,100068.95
2023-03-13T10:16:09.880Z,100066.79
2023-03-13T10:18:39.011Z,100065.71
2023-03-13T10:21:20.848Z,100063.33
2023-03-13T10:23:52.135Z,100061.59
2023-03-13T10:26:27.572Z,100054.65
2023-03-13T10:29:11.850Z,100050.52
2023-03-13T10:31:40.370Z,100044.27
2023-03-13T10:34:14.505Z,100043.73
2023-03-13T10:36:48.106Z,100032.19
2023-03-13T10:39:18.045Z,100022.82
2023-03-13T10:41:46.597Z,100014.13
2023-03-13T10:44:20.976Z,100010.78
2023-03-13T10:46:51.061Z,100010.16
2023-03-13T10:49:22.249Z,99988.98
2023-03-13T10:52:05.034Z,99999.02
2023-03-13T10:54:36.700Z,99992.92
2023-03-13T10:57:27.546Z,99986.48
2023-03-13T10:59:56.815Z,99977.89
2023-03-13T11:02:34.197Z,99973.77
2023-03-13T11:05:22.601Z,99965.30
2023-03-13T11:07:51.447Z,99966.31
2023-03-13T11:10:25.551Z,99941.19
2023-03-13T11:12:56.703Z,99943.85
2023-03-13T11:15:46.124Z,99940.50
2023-03-13T11:18:40.411Z,99933.02
2023-03-13T11:21:20.106Z,99927.60
2023-03-13T11:24:01.989Z,99928.34
2023-03-13T11:26:39.143Z,99921.41
2023-03-13T11:29:16.041Z,99913.49
2023-03-13T11:31:49.310Z,99903.41
2023-03-13T11:34:28.083Z,99897.75
2023-03-13T11:37:05.336Z,99886.92
2023-03-13T11:39:52.312Z,99887.92
2023-03-13T11:42:32.028Z,99878.85
2023-03-13T11:45:18.214Z,99872.33
2023-03-13T11:48:04.730Z,99867.27
2023-03-13T11:50:40.094Z,99863.25
2023-03-13T11:53:49.538Z,99863.58
2023-03-13T11:56:28.818Z,99845.82
2023-03-13T11:59:05.583Z,99844.86
2023-03-13T12:02:00.718Z,99837.98
2023-03-13T12:04:47.468Z,99834.45
2023-03-13T12:07:26.315Z,99829.23
2023-03-13T12:10:02.362Z,99822.09
2023-03-13T12:12:39.483Z,99818.33
2023-03-13T12:15:31.263Z,99808.83
2023-03-13T12:18:06.168Z,99801.60
2023-03-13T12:20:42.673Z,99796.08
2023-03-13T12:23:23.122Z,99788.66
2023-03-13T12:26:06.252Z,99779.80
2023-03-13T12:28:45.755Z,99768.56
2023-03-13T12:31:19.591Z,99767.34
2023-03-13T12:34:22.371Z,99748.13
2023-03-13T12:37:02.220Z,99751.70
2023-03-13T12:39:38.038Z,99747.16
2023-03-13T12:42:12.268Z,99743.23
2023-03-13T12:44:41.068Z,99737.29
2023-03-13T12:47:20.157Z,99734.05
2023-03-13T12:50:07.846Z,99726.67
2023-03-13T12:52:39.143Z,99717.67
2023-03-13T12:55:52.688Z,99698.14
2023-03-13T12:58:38.136Z,99701.08
2023-03-13T13:01:13.318Z,99688.35
2023-03-13T13:03:49.845Z,99674.88
2023-03-13T13:06:18.948Z,99669.36
2023-03-13T13:08:49.090Z,99664.85
2023-03-13T13:11:38.319Z,99661.00
2023-03-13T13:14:16.002Z,99650.27
2023-03-13T13:16:47.330Z,99658.64
2023-03-13T13:19:24.762Z,99648.55
2023-03-13T13:22:30.475Z,99644.61
2023-03-13T13:25:01.317Z,99627.86
2023-03-13T13:27:32.694Z,99626.48
2023-03-13T13:30:01.917Z,99630.98
2023-03-13T13:32:32.726Z,99630.55
2023-03-13T13:35:03.250Z,99628.06
2023-03-13T13:37:31.502Z,99624.95
2023-03-13T13:40:18.576Z,99619.46
2023-03-13T13:42:50.519Z,99609.23
2023-03-13T13:45:29.101Z,99607.58
2023-03-13T13:48:26.425Z,99602.19
2023-03-13T13:51:23.888Z,99588.98
2023-03-13T13:54:17.030Z,99572.19
2023-03-13T13:56:53.818Z,99584.44
2023-03-13T13:59:22.246Z,99580.30
2023-03-13T14:02:13.763Z,99579.77
2023-03-13T14:05:04.274Z,99571.91
2023-03-13T14:07:52.201Z,99573.36
2023-03-13T14:10:52.745Z,99567.48
2023-03-13T14:13:22.650Z,99564.93
2023-03-13T14:15:53.450Z,99558.59
2023-03-13T14:18:30.077Z,99558.47
2023-03-13T14:21:01.564Z,99555.54
2023-03-13T14:23:32.042Z,99551.79
2023-03-13T14:26:11.715Z,99554.06
2023-03-13T14:28:43.527Z,99548.48
2023-03-13T14:31:22.169Z,99545.84
2023-03-13T14:33:50.729Z,99538.84
2023-03-13T14:36:19.528Z,99535.19
2023-03-13T14:39:01.410Z,99532.15
2023-03-13T14:41:47.413Z,99527.89
2023-03-13T14:44:36.627Z,99524.45
2023-03-13T14:47:08.268Z,99521.02
2023-03-13T14:49:37.378Z,99519.08
2023-03-13T14:52:27.308Z,99519.92
2023-03-13T14:54:58.290Z,99516.58
2023-03-13T14:57:27.989Z,99513.14
2023-03-13T15:00:29.129Z,99507.73
2023-03-13T15:03:22.029Z,99504.38
2023-03-13T15:06:07.698Z,99500.17
2023-03-13T15:08:38.822Z,99502.20
2023-03-13T15:11:58.959Z,99496.43
2023-03-13T15:14:40.267Z,99492.10
2023-03-13T15:17:17.535Z,99491.05
2023-03-13T15:19:56.946Z,99491.50
2023-03-13T15:22:46.362Z,99487.17
2023-03-13T15:25:21.964Z,99478.08
2023-03-13T15:27:50.749Z,99479.64
2023-03-13T15:30:23.640Z,99478.70
2023-03-13T15:32:52.575Z,99473.81
2023-03-13T15:35:28.816Z,99477.33
2023-03-13T15:37:59.573Z,99485.15
2023-03-13T15:40:28.676Z,99475.80
2023-03-13T15:42:57.077Z,99473.76
2023-03-13T15:45:25.553Z,99473.77
2023-03-13T15:47:54.154Z,99472.63
2023-03-13T15:50:29.983Z,99468.33
2023-03-13T15:52:58.958Z,99467.74
2023-03-13T15:55:29.258Z,99466.74
2023-03-13T15:57:58.038Z,99468.13
2023-03-13T16:00:27.328Z,99469.70
2023-03-13T16:02:55.603Z,99471.02
2023-03-13T16:05:24.607Z,99473.39
2023-03-13T16:07:53.669Z,99474.01
2023-03-13T16:10:26.092Z,99464.17
2023-03-13T16:12:55.097Z,99479.63
2023-03-13T16:15:23.555Z,99480.41
2023-03-13T16:17:51.783Z,99485.64
2023-03-13T16:20:23.872Z,99490.15
2023-03-13T16:22:53.783Z,99487.92
2023-03-13T16:25:23.243Z,99492.16
2023-03-13T16:27:53.691Z,99490.52
2023-03-13T16:30:30.899Z,99491.66
2023-03-13T16:33:00.045Z,99486.66
2023-03-13T16:35:29.330Z,99493.21
2023-03-13T16:37:58.233Z,99489.31
2023-03-13T16:40:30.249Z,99490.10
2023-03-13T16:42:59.056Z,99495.58
2023-03-13T16:45:27.722Z,99501.43
2023-03-13T16:47:56.133Z,99512.11
2023-03-13T16:50:32.642Z,99510.17
2023-03-13T16:53:01.168Z,99510.55
2023-03-13T16:55:31.766Z,99493.69
2023-03-13T16:58:00.389Z,99511.64
2023-03-13T17:00:31.234Z,99510.81
2023-03-13T17:02:59.824Z,99507.80
2023-03-13T17:05:29.404Z,99510.45
2023-03-13T17:07:57.646Z,99514.68
2023-03-13T17:10:27.703Z,99505.77
2023-03-13T17:12:56.174Z,99514.45
2023-03-13T17:15:26.034Z,99499.86
2023-03-13T17:17:55.160Z,99511.69
2023-03-13T17:20:26.784Z,99515.98
2023-03-13T17:22:58.537Z,99507.66
2023-03-13T17:25:27.017Z,99514.26
2023-03-13T17:27:55.268Z,99527.30
2023-03-13T17:30:28.311Z,99538.06
2023-03-13T17:32:57.147Z,99538.89
2023-03-13T17:35:25.533Z,99540.20
2023-03-13T17:37:53.680Z,99541.41
2023-03-13T17:40:24.800Z,99544.08
2023-03-13T17:42:53.170Z,99539.11
2023-03-13T17:45:21.696Z,99541.79
2023-03-13T17:47:50.519Z,99549.52
2023-03-13T17:50:27.390Z,99551.02
2023-03-13T17:52:56.156Z,99557.77
2023-03-13T17:55:24.741Z,99555.63
2023-03-13T17:57:53.882Z,99558.80
2023-03-13T18:00:24.229Z,99551.36
2023-03-13T18:02:52.450Z,99549.09
2023-03-13T18:05:21.318Z,99545.34
2023-03-13T18:07:49.955Z,99525.80
2023-03-13T18:10:24.046Z,99535.38
2023-03-13T18:12:52.381Z,99536.48
2023-03-13T18:15:22.050Z,99533.45
2023-03-13T18:17:52.000Z,99523.05
2023-03-13T18:20:29.693Z,99517.60
2023-03-13T18:22:59.604Z,99523.30
2023-03-13T18:25:28.923Z,99524.83
2023-03-13T18:27:57.417Z,99512.98
2023-03-13T18:30:26.438Z,99515.87
2023-03-13T18:32:54.924Z,99524.01
2023-03-13T18:35:23.338Z,99525.34
2023-03-13T18:37:51.578Z,99519.71
2023-03-13T18:40:26.002Z,99523.74
2023-03-13T18:42:54.261Z,99521.48
2023-03-13T18:45:27.265Z,99517.16
2023-03-13T18:47:55.569Z,99513.73
2023-03-13T18:50:27.244Z,99506.84
2023-03-13T18:52:57.747Z,99503.89
2023-03-13T18:55:29.985Z,99506.27
2023-03-13T18:57:58.328Z,99503.88
2023-03-13T19:00:31.419Z,99503.91
2023-03-13T19:02:59.753Z,99500.56
2023-03-13T19:05:28.495Z,99500.03
2023-03-13T19:07:56.870Z,99488.76
2023-03-13T19:10:28.138Z,99485.70
2023-03-13T19:12:57.361Z,99482.54
2023-03-13T19:15:28.855Z,99445.14
2023-03-13T19:18:02.625Z,99486.88
2023-03-13T19:20:31.491Z,99473.35
2023-03-13T19:23:01.019Z,99464.41
2023-03-13T19:25:29.733Z,99467.14
2023-03-13T19:27:58.103Z,99473.69
2023-03-13T19:30:26.982Z,99471.58
2023-03-13T19:32:55.707Z,99470.05
2023-03-13T19:35:24.410Z,99466.64
2023-03-13T19:37:53.026Z,99434.24
2023-03-13T19:40:25.727Z,99464.05
2023-03-13T19:42:54.116Z,99461.40
2023-03-13T19:45:22.962Z,99461.20
2023-03-13T19:47:51.458Z,99461.59
2023-03-13T19:50:23.212Z,99462.11
2023-03-13T19:52:51.519Z,99468.27
2023-03-13T19:55:19.897Z,99470.93
2023-03-13T19:57:49.433Z,99465.79
2023-03-13T20:00:23.808Z,99466.00
2023-03-13T20:02:54.984Z,99473.71
2023-03-13T20:05:27.400Z,99472.59
2023-03-13T20:07:55.630Z,99473.11
2023-03-13T20:10:24.541Z,99472.22
2023-03-13T20:12:53.769Z,99478.94
2023-03-13T20:15:22.043Z,99476.65
2023-03-13T20:17:50.224Z,99477.73
2023-03-13T20:20:18.841Z,99478.29
2023-03-13T20:22:47.065Z,99471.32
2023-03-13T20:25:16.282Z,99462.84
2023-03-13T20:27:44.641Z,99462.33
2023-03-13T20:30:13.000Z,99464.96
2023-03-13T20:32:56.709Z,99462.52
2023-03-13T20:35:27.982Z,99467.02
2023-03-13T20:37:57.973Z,99463.73
2023-03-13T20:40:26.344Z,99443.14
2023-03-13T20:42:54.533Z,99458.05
2023-03-13T20:45:22.712Z,99441.38
2023-03-13T20:47:50.974Z,99444.52
2023-03-13T20:50:19.809Z,99431.91
2023-03-13T20:52:48.895Z,99418.06
2023-03-13T20:55:17.397Z,99422.52
2023-03-13T20:57:45.591Z,99430.90
2023-03-13T21:00:14.177Z,99430.51
2023-03-13T21:02:42.479Z,99431.95
2023-03-13T21:05:10.930Z,99429.20
2023-03-13T21:07:39.063Z,99425.86
2023-03-13T21:10:07.854Z,99422.73
2023-03-13T21:12:39.039Z,99416.59
2023-03-13T21:15:09.454Z,99412.02
2023-03-13T21:17:38.516Z,99418.34
2023-03-13T21:20:11.848Z,99423.05
2023-03-13T21:22:42.430Z,99404.83
2023-03-13T21:25:12.042Z,99417.17
2023-03-13T21:27:40.731Z,99422.12
2023-03-13T21:30:10.572Z,99407.47
2023-03-13T21:32:40.445Z,99406.02
2023-03-13T21:35:09.460Z,99416.08
2023-03-13T21:37:37.743Z,99407.45
2023-03-13T21:40:07.321Z,99404.83
2023-03-13T21:42:36.328Z,99403.33
2023-03-13T21:45:06.675Z,99397.16
2023-03-13T21:47:37.702Z,99396.30
2023-03-13T21:50:08.264Z,99400.02
2023-03-13T21:52:40.871Z,99405.65
2023-03-13T21:55:13.097Z,99403.51
2023-03-13T21:57:41.708Z,99398.30
2023-03-13T22:00:14.167Z,99396.23
2023-03-13T22:02:42.894Z,99395.79
2023-03-13T22:05:11.808Z,99391.24
2023-03-13T22:07:40.033Z,99394.12
2023-03-13T22:10:09.360Z,99393.84
2023-03-13T22:12:37.587Z,99385.46
2023-03-13T22:15:06.701Z,99389.05
2023-03-13T22:17:35.447Z,99387.38
2023-03-13T22:20:05.275Z,99383.02
2023-03-13T22:22:33.714Z,99377.77
2023-03-13T22:25:01.968Z,99364.96
2023-03-13T22:27:30.491Z,99362.45
2023-03-13T22:29:58.784Z,99366.75
2023-03-13T22:32:27.124Z,99357.16
2023-03-13T22:34:55.350Z,99350.07
2023-03-13T22:37:26.829Z,99347.05
2023-03-13T22:39:55.173Z,99347.88
2023-03-13T22:42:24.526Z,99339.67
2023-03-13T22:44:55.097Z,99335.58
2023-03-13T22:47:26.083Z,99316.01
2023-03-13T22:49:54.513Z,99328.13
2023-03-13T22:52:28.986Z,99314.31
2023-03-13T22:54:58.665Z,99304.34
2023-03-13T22:57:29.217Z,99293.67
2023-03-13T22:59:59.368Z,99288.98
2023-03-13T23:02:28.626Z,99286.88
2023-03-13T23:04:58.699Z,99285.98
2023-03-13T23:07:28.693Z,99282.34
2023-03-13T23:09:57.870Z,99279.28
2023-03-13T23:12:26.875Z,99279.68
2023-03-13T23:14:55.877Z,99281.34
2023-03-13T23:17:24.049Z,99276.65
2023-03-13T23:19:52.387Z,99274.35
2023-03-13T23:22:22.118Z,99273.11
2023-03-13T23:24:54.081Z,99281.35
2023-03-13T23:27:22.215Z,99285.25
2023-03-13T23:29:51.814Z,99293.06
2023-03-13T23:32:20.170Z,99294.91
2023-03-13T23:34:48.414Z,99290.90
2023-03-13T23:37:16.680Z,99290.62
2023-03-13T23:39:45.120Z,99297.19
2023-03-13T23:42:13.396Z,99304.45
2023-03-13T23:44:41.921Z,99301.88
2023-03-13T23:47:10.136Z,99305.59
2023-03-13T23:49:38.667Z,99298.48
2023-03-13T23:52:06.796Z,99296.95
2023-03-13T23:54:35.401Z,99293.16
2023-03-13T23:57:03.642Z,99292.45
2023-03-13T23:59:32.812Z,99292.09
